Time;durP1;ratioP1;P1;durP2;ratioP2;P2;SDS_P1;SDS_P2;PMS_P1;PMS_P2;Temp;Humidity;BMP_temperature;BMP_pressure;BME280_temperature;BME280_humidity;BME280_pressure;Samples;Min_cycle;Max_cycle;Signal;HPM_P1;HPM_P2
2021/04/01 12:01:18;;;;;;;5.50;2.83;;;;;;;15.45;32.41;100502.59;5104533;27;20346;-75
2021/04/01 12:03:57;;;;;;;5.90;2.50;;;;;;;15.37;32.82;100462.94;5096380;28;20134;-75
2021/04/01 12:06:25;;;;;;;6.97;3.42;;;;;;;15.96;32.35;100545.97;5083306;28;20032;-74
2021/04/01 12:08:51;;;;;;;4.90;3.42;;;;;;;15.66;34.25;100534.88;5088679;28;20419;-72
2021/04/01 12:11:16;;;;;;;5.22;2.60;;;;;;;15.92;33.25;100526.97;5064437;28;20040;-75
2021/04/01 12:13:42;;;;;;;4.72;2.75;;;;;;;16.31;32.34;100547.72;5064213;28;20021;-74
2021/04/01 12:16:19;;;;;;;6.80;3.30;;;;;;;15.67;33.76;100533.88;5064412;28;20024;-75
2021/04/01 12:18:46;;;;;;;6.43;3.10;;;;;;;15.94;33.63;100548.78;5054388;28;20028;-75
2021/04/01 12:21:13;;;;;;;6.10;3.38;;;;;;;16.06;33.19;100522.91;5064110;28;20028;-75
2021/04/01 12:23:43;;;;;;;6.65;3.30;;;;;;;16.25;33.21;100501.56;5064227;28;20067;-75
2021/04/01 12:26:09;;;;;;;6.75;3.10;;;;;;;16.38;33.05;100495.84;5062925;28;20123;-75
2021/04/01 12:28:34;;;;;;;4.60;2.72;;;;;;;16.75;32.24;100508.78;5063881;28;20104;-74
2021/04/01 12:31:00;;;;;;;5.20;3.50;;;;;;;16.80;32.12;100504.81;5063524;28;20109;-75
2021/04/01 12:33:27;;;;;;;11.70;3.58;;;;;;;16.53;31.71;100522.53;5064032;28;20692;-75
2021/04/01 12:35:56;;;;;;;6.38;3.45;;;;;;;16.52;30.97;100486.50;5063450;28;20493;-74
2021/04/01 12:38:33;;;;;;;6.40;3.42;;;;;;;16.85;31.28;100518.44;5063843;28;20499;-75
2021/04/01 12:41:00;;;;;;;8.38;3.95;;;;;;;16.49;30.64;100516.75;5058925;28;20072;-74
2021/04/01 12:43:40;;;;;;;5.47;2.90;;;;;;;16.22;31.53;100482.53;5063586;28;20494;-74
2021/04/01 12:46:07;;;;;;;10.52;5.20;;;;;;;15.98;31.79;100470.00;5064180;28;20055;-75
2021/04/01 12:48:41;;;;;;;5.40;3.40;;;;;;;15.91;32.70;100472.44;5063574;28;20021;-73
2021/04/01 12:51:08;;;;;;;4.30;2.78;;;;;;;16.05;32.93;100500.13;5060633;28;20040;-75
2021/04/01 12:53:34;;;;;;;5.18;3.35;;;;;;;15.82;33.18;100502.44;5063286;28;20040;-75
2021/04/01 12:56:18;;;;;;;6.68;3.58;;;;;;;15.82;35.79;100513.00;5079272;28;20090;-75
2021/04/01 12:58:53;;;;;;;7.97;3.03;;;;;;;15.44;33.08;100508.88;5060605;28;20105;-75
2021/04/01 13:03:47;;;;;;;4.72;3.00;;;;;;;16.05;33.66;100489.56;5063324;28;20491;-74
2021/04/01 13:06:18;;;;;;;6.35;2.67;;;;;;;15.93;33.58;100408.84;5063199;28;20029;-74
2021/04/01 13:11:19;;;;;;;5.50;2.72;;;;;;;16.11;33.11;100485.47;5056686;28;20036;-74
2021/04/01 13:13:44;;;;;;;6.13;3.28;;;;;;;15.97;32.87;100471.84;5049752;28;20051;-73
2021/04/01 13:16:10;;;;;;;6.03;3.17;;;;;;;15.97;35.70;100455.97;5050099;28;20037;-74
2021/04/01 13:18:36;;;;;;;4.97;2.92;;;;;;;15.87;34.29;100399.75;5049803;28;20408;-74
2021/04/01 13:21:04;;;;;;;7.18;3.22;;;;;;;16.14;31.98;100475.41;5049244;28;20070;-74
2021/04/01 13:25:57;;;;;;;6.30;3.17;;;;;;;16.29;32.23;100473.00;5049467;28;20024;-74
2021/04/01 13:28:22;;;;;;;5.20;3.40;;;;;;;15.97;30.99;100468.38;5064999;28;20029;-74
2021/04/01 13:30:56;;;;;;;5.50;3.22;;;;;;;15.76;32.34;100468.69;5064834;28;20032;-74
2021/04/01 13:33:35;;;;;;;8.70;3.70;;;;;;;16.19;32.69;100465.16;5049785;28;20480;-74
2021/04/01 13:36:11;;;;;;;6.07;3.45;;;;;;;16.31;32.74;100463.09;5046993;28;20114;-75
2021/04/01 13:38:42;;;;;;;6.25;2.47;;;;;;;16.32;33.90;100451.53;5045972;28;20116;-74
2021/04/01 13:41:11;;;;;;;5.40;3.00;;;;;;;16.61;32.86;100464.38;5049139;28;20496;-75
2021/04/01 13:43:37;;;;;;;5.65;3.13;;;;;;;16.58;32.30;100451.47;5049283;28;20033;-74
2021/04/01 13:46:03;;;;;;;5.78;3.10;;;;;;;16.61;31.72;100458.28;5049286;28;20068;-75
2021/04/01 13:48:32;;;;;;;6.10;2.72;;;;;;;15.86;31.48;100415.75;5048920;28;20100;-75
2021/04/01 13:51:06;;;;;;;5.50;3.55;;;;;;;15.75;31.30;100444.09;5064145;28;20523;-74
2021/04/01 13:56:23;;;;;;;5.30;3.17;;;;;;;15.98;34.01;100420.63;5041581;28;20033;-74
2021/04/01 14:09:32;;;;;;;4.25;2.70;;;;;;;15.24;34.39;100436.91;5040845;28;20064;-74
2021/04/01 14:12:00;;;;;;;4.45;2.58;;;;;;;15.15;33.39;100422.78;5048573;28;20112;-75
2021/04/01 14:14:27;;;;;;;5.25;2.88;;;;;;;15.11;32.60;100442.53;5047706;28;20381;-74
2021/04/01 14:16:54;;;;;;;5.20;2.80;;;;;;;15.15;32.92;100409.59;5038400;28;20876;-75
2021/04/01 14:19:25;;;;;;;5.47;3.17;;;;;;;15.26;32.70;100398.81;5048598;28;20491;-75
2021/04/01 14:21:57;;;;;;;5.30;3.60;;;;;;;15.40;34.06;100428.28;5063371;28;20037;-74
2021/04/01 14:25:01;;;;;;;8.52;4.40;;;;;;;15.65;33.81;100430.13;5055852;28;20496;-77
2021/04/01 14:27:30;;;;;;;4.93;2.70;;;;;;;16.04;32.99;100429.75;5047037;28;20136;-75
2021/04/01 14:29:58;;;;;;;4.67;2.60;;;;;;;16.02;31.69;100429.06;5048856;28;20031;-74
2021/04/01 14:32:26;;;;;;;4.85;3.15;;;;;;;15.84;32.42;100396.59;5048188;28;20322;-75
2021/04/01 14:34:53;;;;;;;7.10;2.90;;;;;;;15.88;31.96;100403.22;5048101;28;20028;-75
2021/04/01 14:37:23;;;;;;;4.55;2.83;;;;;;;15.90;32.74;100401.25;5048385;28;20128;-74
2021/04/01 14:39:52;;;;;;;6.20;3.08;;;;;;;15.84;32.12;100405.34;5046621;28;20484;-74
2021/04/01 14:42:19;;;;;;;10.85;8.70;;;;;;;15.39;32.85;100350.03;5048222;28;20116;-74
2021/04/01 14:44:44;;;;;;;6.10;3.53;;;;;;;15.48;33.14;100351.75;5047696;28;20150;-75
2021/04/01 14:47:11;;;;;;;6.32;2.65;;;;;;;15.72;33.74;100425.91;5047955;28;20525;-75
2021/04/01 14:49:37;;;;;;;5.50;2.53;;;;;;;15.92;32.88;100394.81;5047833;28;20398;-75
2021/04/01 14:52:02;;;;;;;7.78;2.50;;;;;;;15.65;32.71;100400.22;5048037;28;20032;-74
2021/04/01 14:54:31;;;;;;;6.85;2.88;;;;;;;15.45;32.58;100423.38;5063381;28;20411;-75
2021/04/01 14:57:06;;;;;;;4.95;3.05;;;;;;;15.49;33.45;100399.16;5051446;28;20029;-74
2021/04/01 14:59:37;;;;;;;6.93;3.58;;;;;;;15.81;32.47;100413.59;5052909;28;20135;-74
2021/04/01 15:02:05;;;;;;;4.43;2.78;;;;;;;15.89;33.01;100410.16;5068305;28;20021;-74
2021/04/01 15:04:32;;;;;;;5.07;2.88;;;;;;;15.82;32.34;100384.34;5052981;28;20082;-74
2021/04/01 15:06:57;;;;;;;6.65;3.20;;;;;;;15.84;32.86;100404.53;5052958;28;20040;-74
2021/04/01 15:09:25;;;;;;;5.22;2.78;;;;;;;15.82;33.63;100421.34;5052915;28;20033;-76
2021/04/01 15:11:50;;;;;;;5.88;3.58;;;;;;;15.56;33.78;100375.59;5052970;28;20029;-74
2021/04/01 15:14:16;;;;;;;6.57;2.80;;;;;;;15.69;33.34;100391.91;5052883;28;20032;-74
2021/04/01 15:16:43;;;;;;;5.53;3.00;;;;;;;15.65;34.90;100414.28;5052701;28;20419;-74
2021/04/01 15:19:09;;;;;;;5.30;3.53;;;;;;;15.20;35.90;100422.34;5052663;28;20033;-74
2021/04/01 15:21:35;;;;;;;6.10;3.72;;;;;;;15.16;35.70;100427.09;5052011;28;20031;-75
2021/04/01 15:24:02;;;;;;;6.55;3.08;;;;;;;15.05;36.50;100424.66;5036941;28;20041;-75
2021/04/01 15:26:30;;;;;;;14.38;10.35;;;;;;;14.96;36.87;100418.50;5048482;28;20507;-75
2021/04/01 15:28:56;;;;;;;22.83;12.48;;;;;;;14.92;37.02;100400.47;5045026;28;20021;-75
2021/04/01 15:31:24;;;;;;;7.63;4.07;;;;;;;14.91;36.78;100396.16;5049497;28;20423;-75
2021/04/01 15:33:50;;;;;;;6.00;2.75;;;;;;;14.88;36.73;100416.63;5049442;28;20043;-75
2021/04/01 15:36:18;;;;;;;6.43;3.30;;;;;;;14.63;35.84;100390.94;5049779;28;20120;-74
2021/04/01 15:38:45;;;;;;;4.47;2.80;;;;;;;14.72;37.10;100420.91;5049554;28;20090;-75
2021/04/01 15:41:10;;;;;;;6.10;2.90;;;;;;;14.65;36.66;100386.38;5049669;28;20033;-75
2021/04/01 15:43:36;;;;;;;4.47;2.75;;;;;;;14.72;37.82;100412.97;5049345;28;20036;-75
2021/04/01 15:46:02;;;;;;;5.38;2.80;;;;;;;14.67;37.24;100420.50;5049636;28;20060;-75
2021/04/01 15:48:27;;;;;;;7.22;3.50;;;;;;;14.68;38.10;100425.63;5049526;28;20029;-75
2021/04/01 15:50:53;;;;;;;6.10;3.47;;;;;;;14.79;37.53;100422.78;5049689;28;20036;-74
2021/04/01 15:53:18;;;;;;;5.35;3.30;;;;;;;14.35;38.29;100395.41;5049579;28;20029;-75
2021/04/01 15:55:45;;;;;;;6.90;4.80;;;;;;;14.38;37.80;100382.75;5049446;28;20424;-75
2021/04/01 15:58:11;;;;;;;6.05;3.50;;;;;;;14.41;38.23;100414.09;5048783;28;20033;-74
2021/04/01 16:00:38;;;;;;;7.22;4.78;;;;;;;14.54;38.96;100415.56;5049349;28;20053;-74
2021/04/01 16:03:05;;;;;;;8.40;5.45;;;;;;;14.41;38.11;100390.38;5049137;28;20055;-74
2021/04/01 16:05:31;;;;;;;15.70;8.02;;;;;;;14.51;39.43;100422.00;5049416;28;20036;-74
2021/04/01 16:07:56;;;;;;;7.78;4.53;;;;;;;13.92;40.90;100344.94;5049218;28;20021;-74
2021/04/01 16:10:22;;;;;;;7.30;4.10;;;;;;;14.17;40.98;100390.06;5049159;28;20032;-75
2021/04/01 16:12:48;;;;;;;9.27;5.50;;;;;;;13.93;41.97;100390.56;5048949;28;20057;-74
2021/04/01 16:15:13;;;;;;;11.43;7.70;;;;;;;13.88;42.25;100380.47;5049587;28;20468;-74
2021/04/01 16:17:39;;;;;;;8.75;4.40;;;;;;;13.85;42.18;100393.94;5049277;28;20036;-74
2021/04/01 16:20:06;;;;;;;9.23;5.25;;;;;;;13.94;42.33;100410.69;5049140;28;20052;-74
2021/04/01 16:22:31;;;;;;;25.30;15.98;;;;;;;13.94;42.40;100421.22;5049366;28;20443;-73
2021/04/01 16:24:57;;;;;;;12.80;10.63;;;;;;;13.72;42.59;100382.88;5048888;28;20067;-75
2021/04/01 16:27:22;;;;;;;7.07;3.45;;;;;;;13.88;42.27;100422.63;5049096;28;20024;-74
2021/04/01 16:29:49;;;;;;;6.20;3.53;;;;;;;13.56;41.79;100416.88;5064687;28;20087;-73
2021/04/01 16:32:17;;;;;;;8.48;2.83;;;;;;;13.18;42.64;100411.47;5049017;28;20052;-73
2021/04/01 16:34:44;;;;;;;7.20;2.97;;;;;;;13.06;43.73;100409.09;5048789;28;20473;-72
2021/04/01 16:37:10;;;;;;;6.13;3.70;;;;;;;13.03;45.12;100388.31;5048891;28;20025;-73
2021/04/01 16:39:35;;;;;;;7.57;4.22;;;;;;;13.19;45.47;100417.56;5048766;28;20029;-70
2021/04/01 16:42:02;;;;;;;9.68;4.03;;;;;;;13.03;46.32;100393.59;5048709;28;20045;-69
2021/04/01 16:44:28;;;;;;;7.05;3.70;;;;;;;12.88;46.00;100391.38;5047564;28;20037;-69
2021/04/01 16:46:53;;;;;;;9.95;4.13;;;;;;;12.68;47.29;100374.75;5050783;28;20029;-68
2021/04/01 16:49:20;;;;;;;30.63;13.85;;;;;;;12.48;49.18;100436.97;5052638;28;20029;-69
2021/04/01 16:51:52;;;;;;;18.52;7.53;;;;;;;12.31;48.30;100428.88;5052834;28;20389;-70
2021/04/01 16:54:20;;;;;;;76.65;33.53;;;;;;;12.19;48.34;100418.47;5052586;28;20017;-69
2021/04/01 16:56:52;;;;;;;28.13;12.63;;;;;;;11.91;51.65;100392.91;5050419;28;20474;-70
2021/04/01 16:59:19;;;;;;;13.98;4.30;;;;;;;11.95;54.27;100420.59;5051812;28;20049;-70
2021/04/01 17:01:46;;;;;;;9.25;4.18;;;;;;;11.66;54.22;100381.00;5052517;28;20033;-69
2021/04/01 17:04:18;;;;;;;8.73;4.00;;;;;;;11.70;53.85;100419.16;5052296;28;20040;-70
2021/04/01 17:06:47;;;;;;;12.48;5.20;;;;;;;11.23;54.43;100418.69;5048957;28;20029;-70
2021/04/01 17:09:12;;;;;;;8.93;4.80;;;;;;;10.85;55.02;100427.88;5052218;28;20107;-69
2021/04/01 17:11:38;;;;;;;14.90;4.80;;;;;;;10.69;54.81;100401.25;5052499;28;20029;-70
2021/04/01 17:14:04;;;;;;;8.55;5.47;;;;;;;10.85;54.96;100423.47;5052361;28;20033;-70
2021/04/01 17:16:31;;;;;;;11.20;5.80;;;;;;;10.43;56.81;100400.69;5052143;28;20447;-70
2021/04/01 17:19:00;;;;;;;13.75;6.70;;;;;;;10.39;56.88;100431.53;5051732;28;20111;-70
2021/04/01 17:21:27;;;;;;;17.10;6.43;;;;;;;9.89;56.73;100413.53;5052953;28;20017;-70
2021/04/01 17:23:53;;;;;;;45.15;19.55;;;;;;;9.67;57.39;100408.25;5052201;28;20083;-70
2021/04/01 17:26:22;;;;;;;15.00;7.85;;;;;;;9.71;58.81;100446.34;5051627;28;20039;-70
2021/04/01 17:28:49;;;;;;;22.02;8.57;;;;;;;9.18;59.77;100425.03;5051230;28;20033;-71
2021/04/01 17:31:14;;;;;;;18.17;8.00;;;;;;;8.98;59.52;100402.94;5051499;28;20055;-71
2021/04/01 17:33:41;;;;;;;11.80;7.35;;;;;;;9.07;59.93;100414.50;5038575;28;20476;-71
2021/04/01 17:36:07;;;;;;;16.55;5.95;;;;;;;9.20;61.80;100447.47;5051101;28;20649;-70
2021/04/01 17:38:37;;;;;;;11.70;5.75;;;;;;;9.17;60.82;100445.09;5039072;28;20033;-70
2021/04/01 17:41:03;;;;;;;12.25;6.20;;;;;;;8.95;62.19;100413.63;5049768;28;20523;-70
2021/04/01 17:43:29;;;;;;;19.05;10.85;;;;;;;8.96;62.17;100425.75;5050372;28;20039;-70
2021/04/01 17:45:54;;;;;;;15.27;8.88;;;;;;;9.01;62.00;100441.94;5066546;28;20029;-71
2021/04/01 17:48:19;;;;;;;15.38;8.48;;;;;;;8.93;61.70;100450.31;5051271;28;20108;-71
2021/04/01 17:50:45;;;;;;;13.25;6.50;;;;;;;9.01;63.28;100456.75;5050727;28;20033;-71
2021/04/01 17:53:11;;;;;;;14.02;6.55;;;;;;;8.79;61.22;100423.50;5051137;28;20470;-71
2021/04/01 17:55:49;;;;;;;10.48;5.60;;;;;;;8.78;60.42;100406.19;5050296;28;20450;-71
2021/04/01 17:58:15;;;;;;;10.40;5.35;;;;;;;8.93;62.89;100450.31;5054874;28;20028;-70
2021/04/01 18:00:44;;;;;;;13.50;5.20;;;;;;;8.85;65.20;100433.53;5049703;28;20072;-70
2021/04/01 18:24:50;;;;;;;9.07;5.97;;;;;;;8.43;66.94;100462.56;5013875;28;20208;-70
2021/04/01 18:27:36;;;;;;;10.18;6.32;;;;;;;8.26;65.83;100445.44;5051028;28;20025;-71
2021/04/01 18:30:10;;;;;;;9.27;5.45;;;;;;;8.38;64.55;100461.25;5066045;28;20040;-70
2021/04/01 18:32:40;;;;;;;12.30;6.72;;;;;;;8.28;66.11;100458.41;5050968;28;20115;-71
2021/04/01 18:35:17;;;;;;;29.90;16.85;;;;;;;8.05;66.15;100436.47;5058032;28;20043;-74
2021/04/01 18:37:50;;;;;;;33.38;21.92;;;;;;;8.07;64.73;100465.94;5064819;28;20036;-70
2021/04/01 18:40:36;;;;;;;12.38;8.38;;;;;;;8.01;64.75;100474.19;5049099;28;20033;-70
2021/04/01 18:43:04;;;;;;;10.38;6.53;;;;;;;7.88;64.71;100442.03;5049548;28;20053;-69
2021/04/01 18:50:36;;;;;;;11.20;6.65;;;;;;;7.82;65.66;100471.97;5050619;28;20024;-70
2021/04/01 18:53:05;;;;;;;8.57;5.40;;;;;;;7.69;64.07;100440.63;5049440;28;20040;-71
2021/04/01 18:58:08;;;;;;;7.57;5.00;;;;;;;8.08;61.37;100470.22;5048634;28;20041;-71
2021/04/01 19:00:40;;;;;;;7.72;5.03;;;;;;;8.23;60.19;100463.94;5049936;28;20078;-70
2021/04/01 19:03:06;;;;;;;9.15;5.82;;;;;;;8.17;60.94;100471.38;5050144;28;20094;-71
2021/04/01 19:05:36;;;;;;;8.20;5.65;;;;;;;8.19;60.66;100464.25;5050147;28;20028;-70
2021/04/01 19:24:12;;;;;;;6.93;4.60;;;;;;;8.13;59.96;100455.03;5050153;28;20548;-69
2021/04/01 19:26:38;;;;;;;8.10;5.95;;;;;;;8.19;61.72;100453.81;5063727;28;20504;-70
2021/04/01 19:29:05;;;;;;;8.93;6.00;;;;;;;8.15;62.22;100457.56;5049163;28;20037;-70
2021/04/01 19:31:30;;;;;;;18.15;6.22;;;;;;;8.14;62.77;100443.69;5049307;28;20079;-70
2021/04/01 19:33:57;;;;;;;9.43;5.43;;;;;;;8.07;62.40;100449.44;5049228;28;20147;-70
2021/04/01 19:36:22;;;;;;;9.77;5.78;;;;;;;7.98;62.00;100456.13;5064548;28;20033;-70
2021/04/01 19:38:49;;;;;;;10.40;4.80;;;;;;;8.03;61.60;100457.47;5064070;28;20503;-71
2021/04/01 19:41:16;;;;;;;7.00;4.72;;;;;;;7.78;61.17;100416.53;5048648;28;20159;-71
2021/04/01 19:43:42;;;;;;;8.05;5.00;;;;;;;7.82;60.88;100414.56;5049172;28;20021;-71
2021/04/01 19:46:07;;;;;;;8.70;4.88;;;;;;;8.02;61.20;100447.13;5049737;28;20040;-69
2021/04/01 19:48:36;;;;;;;8.02;5.13;;;;;;;8.01;61.04;100441.06;5048957;28;20024;-70
2021/04/01 19:51:03;;;;;;;8.10;4.82;;;;;;;7.55;60.86;100365.09;5046306;28;20127;-70
2021/04/01 19:53:33;;;;;;;7.00;4.57;;;;;;;8.10;60.30;100441.38;5048115;28;20033;-71
2021/04/01 19:56:04;;;;;;;6.88;4.43;;;;;;;8.04;60.56;100430.44;5049290;28;20176;-68
2021/04/01 19:58:29;;;;;;;8.60;4.82;;;;;;;8.21;60.26;100444.94;5049242;28;20100;-70
2021/04/01 20:00:55;;;;;;;7.90;4.13;;;;;;;7.99;60.33;100413.41;5048170;28;20079;-70
2021/04/01 20:03:23;;;;;;;8.07;4.15;;;;;;;8.22;60.22;100443.97;5049164;28;20535;-70
2021/04/01 20:05:48;;;;;;;7.15;4.20;;;;;;;8.22;59.99;100443.97;5049204;28;20025;-72
2021/04/01 20:08:14;;;;;;;7.82;4.22;;;;;;;7.99;59.85;100410.78;5047791;28;20042;-71
2021/04/01 20:10:40;;;;;;;8.88;5.88;;;;;;;7.97;59.70;100403.09;5047947;28;20070;-72
2021/04/01 20:13:10;;;;;;;7.22;4.78;;;;;;;8.18;59.57;100434.69;5048136;28;20155;-71
2021/04/01 20:15:36;;;;;;;7.18;4.22;;;;;;;8.19;59.80;100445.97;5048745;28;20106;-70
2021/04/01 20:18:04;;;;;;;7.28;4.30;;;;;;;7.97;59.35;100397.03;5048023;28;20032;-71
2021/04/01 20:20:30;;;;;;;7.10;4.45;;;;;;;8.18;59.72;100442.53;5048498;28;20040;-70
2021/04/01 20:22:55;;;;;;;8.02;4.88;;;;;;;8.16;59.73;100436.56;5052343;28;20025;-69
2021/04/01 20:25:21;;;;;;;6.35;4.25;;;;;;;8.04;59.31;100403.50;5053292;28;20032;-70
2021/04/01 20:27:47;;;;;;;8.32;4.82;;;;;;;8.08;59.08;100404.13;5052979;28;20522;-70
2021/04/01 20:30:17;;;;;;;8.27;5.18;;;;;;;8.38;58.78;100443.78;5069080;28;20048;-69
2021/04/01 20:32:43;;;;;;;;;;;;;;;8.41;59.17;100440.13;5055956;28;20099;-70
2021/04/01 20:35:10;;;;;;;6.68;4.88;;;;;;;8.36;59.16;100432.56;5055829;28;19908;-69
2021/04/01 20:37:35;;;;;;;11.90;5.45;;;;;;;8.36;59.82;100431.75;5056067;28;20029;-69
2021/04/01 20:40:06;;;;;;;8.85;6.78;;;;;;;8.37;60.11;100441.25;5055669;28;20510;-70
2021/04/01 20:42:32;;;;;;;10.77;6.35;;;;;;;8.44;59.90;100437.31;5055855;28;20025;-70
2021/04/01 20:44:57;;;;;;;13.57;7.70;;;;;;;8.38;60.23;100437.75;5055675;28;20039;-69
2021/04/01 20:47:23;;;;;;;10.20;6.60;;;;;;;8.41;60.05;100450.59;5055637;28;20047;-69
2021/04/01 20:49:49;;;;;;;10.70;6.97;;;;;;;8.35;60.57;100441.34;5055348;28;20115;-69
2021/04/01 20:52:14;;;;;;;10.25;6.72;;;;;;;7.98;60.91;100398.69;5055830;28;20032;-69
2021/04/01 20:54:41;;;;;;;8.98;6.25;;;;;;;8.08;60.81;100443.28;5055688;28;20025;-69
2021/04/01 20:57:06;;;;;;;9.85;6.68;;;;;;;7.91;61.54;100445.25;5055687;28;20063;-70
2021/04/01 20:59:32;;;;;;;11.63;7.38;;;;;;;7.74;62.74;100451.63;5055196;28;20404;-70
2021/04/01 21:01:57;;;;;;;8.35;6.47;;;;;;;7.73;63.02;100460.38;5055254;28;20045;-69
2021/04/01 21:04:23;;;;;;;8.38;5.90;;;;;;;7.70;62.61;100457.97;5055254;28;20059;-70
2021/04/01 21:06:49;;;;;;;9.43;6.38;;;;;;;7.32;62.65;100411.81;5054923;28;20403;-69
2021/04/01 21:09:14;;;;;;;8.80;4.78;;;;;;;7.64;61.83;100442.72;5055128;28;20036;-69
2021/04/01 21:11:40;;;;;;;8.07;5.55;;;;;;;7.70;62.46;100434.50;5055197;28;20055;-69
2021/04/01 21:14:05;;;;;;;8.70;6.03;;;;;;;7.41;62.97;100383.44;5054908;28;20103;-70
2021/04/01 21:16:32;;;;;;;11.63;7.05;;;;;;;7.77;64.03;100440.16;5055105;28;20032;-70
2021/04/01 21:18:57;;;;;;;21.15;11.70;;;;;;;7.73;62.40;100426.47;5054868;28;20032;-70
2021/04/01 21:21:23;;;;;;;11.10;6.70;;;;;;;7.68;62.16;100436.38;5055397;28;20044;-70
2021/04/01 21:23:48;;;;;;;9.63;6.13;;;;;;;7.32;62.68;100431.81;5055450;28;20117;-70
2021/04/01 21:26:14;;;;;;;16.77;9.77;;;;;;;7.36;64.30;100437.66;5054954;28;20059;-70
2021/04/01 21:28:39;;;;;;;22.90;12.68;;;;;;;6.92;64.25;100350.19;5054968;28;20021;-70
2021/04/01 21:31:10;;;;;;;19.55;9.57;;;;;;;7.63;63.65;100445.44;5054780;28;20039;-70
2021/04/01 21:33:42;;;;;;;18.65;11.15;;;;;;;7.30;64.51;100398.03;5054285;28;20031;-70
2021/04/01 21:36:10;;;;;;;21.92;10.68;;;;;;;7.43;64.37;100437.19;5054697;28;20033;-70
2021/04/01 21:38:37;;;;;;;15.30;8.55;;;;;;;7.47;63.62;100419.56;5054529;28;20033;-70
2021/04/01 21:41:10;;;;;;;13.48;8.18;;;;;;;7.45;63.23;100435.28;5053672;28;20055;-70
2021/04/01 21:43:36;;;;;;;13.70;8.35;;;;;;;7.38;63.84;100420.16;5054708;28;20481;-70
2021/04/01 21:46:03;;;;;;;11.10;7.68;;;;;;;7.24;63.81;100434.94;5054479;28;20025;-70
2021/04/01 21:48:29;;;;;;;12.63;7.50;;;;;;;7.15;64.56;100439.91;5054324;28;20047;-70
2021/04/01 21:51:00;;;;;;;12.10;7.53;;;;;;;7.14;64.24;100433.03;5054405;28;20536;-70
2021/04/01 21:53:28;;;;;;;13.27;8.43;;;;;;;7.17;64.56;100435.44;5054628;28;20025;-70
2021/04/01 21:55:53;;;;;;;16.50;8.10;;;;;;;6.85;65.21;100397.50;5054580;28;20025;-70
2021/04/01 21:58:20;;;;;;;11.95;7.53;;;;;;;6.84;65.51;100406.22;5054091;28;20028;-70
2021/04/01 22:00:51;;;;;;;19.73;8.10;;;;;;;6.67;66.82;100382.19;5053745;28;20480;-70
2021/04/01 22:03:19;;;;;;;10.85;6.45;;;;;;;6.86;67.04;100425.22;5054506;28;20108;-70
2021/04/01 22:05:44;;;;;;;14.77;7.35;;;;;;;6.80;66.98;100428.19;5054361;28;20104;-70
2021/04/01 22:08:14;;;;;;;13.43;8.35;;;;;;;6.34;67.84;100389.41;5054088;28;20033;-70
2021/04/01 22:10:42;;;;;;;13.60;7.80;;;;;;;6.65;67.86;100431.78;5054139;28;20029;-70
2021/04/01 22:13:10;;;;;;;11.40;7.25;;;;;;;6.66;66.46;100424.81;5052772;28;20420;-70
2021/04/01 22:15:35;;;;;;;12.23;7.32;;;;;;;6.49;67.07;100428.47;5052751;28;20025;-70
2021/04/01 22:18:01;;;;;;;11.73;7.85;;;;;;;6.47;67.97;100433.75;5053883;28;20036;-70
2021/04/01 22:20:29;;;;;;;10.90;7.57;;;;;;;6.26;69.48;100420.31;5053993;28;20028;-70
2021/04/01 22:22:55;;;;;;;11.70;7.47;;;;;;;6.30;70.00;100437.41;5053546;28;20431;-70
2021/04/01 22:25:31;;;;;;;15.60;7.30;;;;;;;5.98;70.62;100438.53;5053802;28;20028;-71
2021/04/01 22:27:57;;;;;;;10.38;7.28;;;;;;;5.97;69.66;100440.28;5053697;28;20435;-70
2021/04/01 22:30:36;;;;;;;11.55;8.15;;;;;;;5.74;70.20;100427.78;5053718;28;20036;-71
2021/04/01 22:33:02;;;;;;;11.95;7.97;;;;;;;5.62;70.59;100431.94;5053840;28;20064;-70
2021/04/01 22:35:30;;;;;;;11.15;7.63;;;;;;;5.47;72.73;100431.09;5053616;28;20110;-70
2021/04/01 22:38:04;;;;;;;11.27;7.10;;;;;;;5.24;72.50;100423.78;5053608;28;20021;-70
2021/04/01 22:40:29;;;;;;;12.60;8.10;;;;;;;5.32;71.92;100422.41;5053486;28;20126;-70
2021/04/01 22:42:55;;;;;;;10.20;7.65;;;;;;;5.11;73.58;100416.66;5053148;28;20472;-70
2021/04/01 22:45:20;;;;;;;11.80;7.65;;;;;;;4.77;73.95;100378.78;5051231;28;20037;-70
2021/04/01 22:47:46;;;;;;;10.52;7.22;;;;;;;4.51;73.73;100375.03;5053218;28;20017;-70
2021/04/01 22:50:15;;;;;;;10.30;7.53;;;;;;;4.82;75.99;100423.47;5053281;28;20037;-70
2021/04/01 22:52:42;;;;;;;10.43;6.95;;;;;;;4.37;75.28;100387.91;5053294;28;20021;-71
2021/04/01 22:55:09;;;;;;;10.27;7.10;;;;;;;4.40;76.30;100411.94;5052203;28;20508;-72
2021/04/01 22:57:41;;;;;;;10.65;7.78;;;;;;;4.03;78.14;100423.44;5051927;28;20049;-71
2021/04/01 23:00:14;;;;;;;13.80;8.10;;;;;;;3.63;80.48;100411.69;5050140;28;20128;-71
2021/04/01 23:02:39;;;;;;;12.57;8.07;;;;;;;3.36;82.78;100380.22;5051752;28;20027;-71
2021/04/01 23:05:05;;;;;;;12.30;7.55;;;;;;;3.62;85.04;100412.63;5072724;28;20100;-71
2021/04/01 23:07:31;;;;;;;11.13;7.53;;;;;;;3.75;82.84;100411.06;5072819;28;20029;-71
2021/04/01 23:09:57;;;;;;;10.02;6.88;;;;;;;3.86;81.85;100413.94;5073040;28;20104;-71
2021/04/01 23:12:23;;;;;;;10.68;6.72;;;;;;;3.53;81.35;100370.69;5071627;28;20554;-71
2021/04/01 23:14:48;;;;;;;11.05;6.97;;;;;;;3.83;81.37;100408.91;5073117;28;20094;-70
2021/04/01 23:17:13;;;;;;;9.73;7.15;;;;;;;3.88;80.24;100406.06;5072835;28;20077;-71
2021/04/01 23:19:39;;;;;;;21.23;8.90;;;;;;;3.67;79.45;100379.50;5072480;28;20032;-71
2021/04/01 23:22:04;;;;;;;13.02;8.50;;;;;;;3.88;78.70;100411.25;5057073;28;20086;-71
2021/04/01 23:24:30;;;;;;;9.90;6.72;;;;;;;3.59;82.45;100371.28;5052477;28;20033;-71
2021/04/01 23:26:55;;;;;;;13.32;7.75;;;;;;;3.76;82.54;100402.38;5052899;28;20025;-71
2021/04/01 23:29:21;;;;;;;17.00;8.60;;;;;;;3.33;78.48;100313.84;5052995;28;20455;-71
2021/04/01 23:31:46;;;;;;;22.50;8.82;;;;;;;4.00;75.64;100398.50;5052588;28;20032;-71
2021/04/01 23:34:12;;;;;;;27.85;8.80;;;;;;;4.05;76.15;100402.59;5053035;28;20091;-72
2021/04/01 23:36:37;;;;;;;22.25;9.70;;;;;;;3.43;76.48;100299.50;5050735;28;20500;-73
2021/04/01 23:39:03;;;;;;;12.60;7.60;;;;;;;3.91;78.05;100398.97;5050444;28;20090;-71
2021/04/01 23:41:33;;;;;;;14.93;7.95;;;;;;;4.01;77.16;100394.97;5050805;28;20029;-72
2021/04/01 23:43:59;;;;;;;19.52;7.82;;;;;;;4.02;75.85;100394.06;5047328;28;20036;-72
2021/04/01 23:46:24;;;;;;;16.02;7.90;;;;;;;4.02;74.42;100388.06;5050085;28;20079;-71
2021/04/01 23:48:51;;;;;;;16.50;8.73;;;;;;;3.98;75.70;100383.91;5050642;28;20044;-72
2021/04/01 23:51:16;;;;;;;14.35;7.63;;;;;;;3.45;77.83;100343.50;5050472;28;20030;-71
2021/04/01 23:53:42;;;;;;;15.55;8.10;;;;;;;3.36;81.33;100388.00;5050597;28;20029;-72
2021/04/01 23:56:07;;;;;;;14.27;7.88;;;;;;;2.62;84.36;100344.16;5054154;28;20539;-71
2021/04/01 23:58:33;;;;;;;15.13;8.25;;;;;;;2.67;87.25;100379.25;5062507;28;20028;-71
